sensor_id;sensor_type;location;lat;lon;timestamp;temperature;humidity
20171;DHT22;10245;51.344;6.620;2023-01-09T00:00:18;8.00;93.40
20171;DHT22;10245;51.344;6.620;2023-01-09T00:02:43;8.00;93.50
20171;DHT22;10245;51.344;6.620;2023-01-09T00:05:07;7.90;93.40
20171;DHT22;10245;51.344;6.620;2023-01-09T00:07:30;8.00;93.60
20171;DHT22;10245;51.344;6.620;2023-01-09T00:09:53;7.90;93.50
20171;DHT22;10245;51.344;6.620;2023-01-09T00:12:17;7.90;93.60
20171;DHT22;10245;51.344;6.620;2023-01-09T00:14:41;7.90;93.40
20171;DHT22;10245;51.344;6.620;2023-01-09T00:17:06;7.90;93.40
20171;DHT22;10245;51.344;6.620;2023-01-09T00:19:29;7.80;93.40
20171;DHT22;10245;51.344;6.620;2023-01-09T00:21:52;7.90;93.40
20171;DHT22;10245;51.344;6.620;2023-01-09T00:24:16;7.80;92.90
20171;DHT22;10245;51.344;6.620;2023-01-09T00:26:39;7.80;92.80
20171;DHT22;10245;51.344;6.620;2023-01-09T00:29:03;7.80;92.10
20171;DHT22;10245;51.344;6.620;2023-01-09T00:31:27;7.80;92.20
20171;DHT22;10245;51.344;6.620;2023-01-09T00:33:55;7.70;92.20
20171;DHT22;10245;51.344;6.620;2023-01-09T00:36:21;7.70;92.00
20171;DHT22;10245;51.344;6.620;2023-01-09T00:38:44;7.70;92.00
20171;DHT22;10245;51.344;6.620;2023-01-09T00:41:10;7.60;92.30
20171;DHT22;10245;51.344;6.620;2023-01-09T00:43:39;7.60;92.20
20171;DHT22;10245;51.344;6.620;2023-01-09T00:46:06;7.60;92.30
20171;DHT22;10245;51.344;6.620;2023-01-09T00:48:31;7.60;92.40
20171;DHT22;10245;51.344;6.620;2023-01-09T00:50:57;7.50;92.60
20171;DHT22;10245;51.344;6.620;2023-01-09T00:53:22;7.50;92.20
20171;DHT22;10245;51.344;6.620;2023-01-09T00:55:48;7.50;92.40
20171;DHT22;10245;51.344;6.620;2023-01-09T00:58:12;7.50;92.70
20171;DHT22;10245;51.344;6.620;2023-01-09T01:00:35;7.50;92.60
20171;DHT22;10245;51.344;6.620;2023-01-09T01:02:59;7.50;92.80
20171;DHT22;10245;51.344;6.620;2023-01-09T01:05:22;7.50;92.70
20171;DHT22;10245;51.344;6.620;2023-01-09T01:08:01;7.50;92.40
20171;DHT22;10245;51.344;6.620;2023-01-09T01:10:25;7.40;92.50
20171;DHT22;10245;51.344;6.620;2023-01-09T01:12:50;7.50;92.50
20171;DHT22;10245;51.344;6.620;2023-01-09T01:15:14;7.40;92.60
20171;DHT22;10245;51.344;6.620;2023-01-09T01:17:39;7.40;92.70
20171;DHT22;10245;51.344;6.620;2023-01-09T01:20:04;7.40;92.60
20171;DHT22;10245;51.344;6.620;2023-01-09T01:22:29;7.30;92.70
20171;DHT22;10245;51.344;6.620;2023-01-09T01:24:54;7.30;92.90
20171;DHT22;10245;51.344;6.620;2023-01-09T01:27:18;7.30;92.90
20171;DHT22;10245;51.344;6.620;2023-01-09T01:29:41;7.30;92.70
20171;DHT22;10245;51.344;6.620;2023-01-09T01:32:04;7.50;91.60
20171;DHT22;10245;51.344;6.620;2023-01-09T01:34:29;7.50;91.50
20171;DHT22;10245;51.344;6.620;2023-01-09T01:36:52;7.50;91.80
20171;DHT22;10245;51.344;6.620;2023-01-09T01:39:15;7.50;91.90
20171;DHT22;10245;51.344;6.620;2023-01-09T01:41:40;7.40;91.70
20171;DHT22;10245;51.344;6.620;2023-01-09T01:44:05;7.40;91.40
20171;DHT22;10245;51.344;6.620;2023-01-09T01:46:51;7.40;91.60
20171;DHT22;10245;51.344;6.620;2023-01-09T01:49:16;7.30;91.90
20171;DHT22;10245;51.344;6.620;2023-01-09T01:51:44;7.30;91.90
20171;DHT22;10245;51.344;6.620;2023-01-09T01:54:12;7.30;91.80
20171;DHT22;10245;51.344;6.620;2023-01-09T01:56:43;7.30;92.00
20171;DHT22;10245;51.344;6.620;2023-01-09T01:59:08;7.20;92.30
20171;DHT22;10245;51.344;6.620;2023-01-09T02:01:36;7.10;92.50
20171;DHT22;10245;51.344;6.620;2023-01-09T02:04:02;7.00;92.40
20171;DHT22;10245;51.344;6.620;2023-01-09T02:06:26;7.10;92.20
20171;DHT22;10245;51.344;6.620;2023-01-09T02:08:50;7.20;91.40
20171;DHT22;10245;51.344;6.620;2023-01-09T02:11:14;7.20;91.20
20171;DHT22;10245;51.344;6.620;2023-01-09T02:13:41;7.00;91.80
20171;DHT22;10245;51.344;6.620;2023-01-09T02:16:23;7.00;91.80
20171;DHT22;10245;51.344;6.620;2023-01-09T02:18:57;7.00;91.40
20171;DHT22;10245;51.344;6.620;2023-01-09T02:21:37;7.00;91.40
20171;DHT22;10245;51.344;6.620;2023-01-09T02:24:27;7.00;91.00
20171;DHT22;10245;51.344;6.620;2023-01-09T02:27:42;7.00;90.60
20171;DHT22;10245;51.344;6.620;2023-01-09T02:30:36;7.00;90.50
20171;DHT22;10245;51.344;6.620;2023-01-09T02:33:12;6.80;90.90
20171;DHT22;10245;51.344;6.620;2023-01-09T02:35:52;6.80;91.20
20171;DHT22;10245;51.344;6.620;2023-01-09T02:38:26;6.80;91.40
20171;DHT22;10245;51.344;6.620;2023-01-09T02:40:56;6.80;91.00
20171;DHT22;10245;51.344;6.620;2023-01-09T02:43:22;6.90;90.70
20171;DHT22;10245;51.344;6.620;2023-01-09T02:45:48;6.90;90.90
20171;DHT22;10245;51.344;6.620;2023-01-09T02:48:11;6.80;91.10
20171;DHT22;10245;51.344;6.620;2023-01-09T02:50:40;7.00;89.70
20171;DHT22;10245;51.344;6.620;2023-01-09T02:53:34;6.90;90.20
20171;DHT22;10245;51.344;6.620;2023-01-09T02:56:20;7.00;89.60
20171;DHT22;10245;51.344;6.620;2023-01-09T02:59:09;6.90;90.50
20171;DHT22;10245;51.344;6.620;2023-01-09T03:01:51;6.80;90.60
20171;DHT22;10245;51.344;6.620;2023-01-09T03:04:22;6.80;90.40
20171;DHT22;10245;51.344;6.620;2023-01-09T03:06:54;6.80;91.00
20171;DHT22;10245;51.344;6.620;2023-01-09T03:09:23;6.80;91.20
20171;DHT22;10245;51.344;6.620;2023-01-09T03:11:51;6.80;90.90
20171;DHT22;10245;51.344;6.620;2023-01-09T03:14:20;6.80;90.80
20171;DHT22;10245;51.344;6.620;2023-01-09T03:16:51;6.80;90.80
20171;DHT22;10245;51.344;6.620;2023-01-09T03:19:20;6.70;90.70
20171;DHT22;10245;51.344;6.620;2023-01-09T03:21:48;6.70;90.70
20171;DHT22;10245;51.344;6.620;2023-01-09T03:24:12;6.50;91.00
20171;DHT22;10245;51.344;6.620;2023-01-09T03:26:36;6.70;90.50
20171;DHT22;10245;51.344;6.620;2023-01-09T03:28:59;6.50;90.60
20171;DHT22;10245;51.344;6.620;2023-01-09T03:31:22;6.50;90.90
20171;DHT22;10245;51.344;6.620;2023-01-09T03:33:47;6.50;90.40
20171;DHT22;10245;51.344;6.620;2023-01-09T03:36:12;6.60;90.10
20171;DHT22;10245;51.344;6.620;2023-01-09T03:38:37;6.50;90.50
20171;DHT22;10245;51.344;6.620;2023-01-09T03:41:00;6.40;90.90
20171;DHT22;10245;51.344;6.620;2023-01-09T03:43:24;6.40;90.70
20171;DHT22;10245;51.344;6.620;2023-01-09T03:45:47;6.40;90.70
20171;DHT22;10245;51.344;6.620;2023-01-09T03:48:10;6.40;90.50
20171;DHT22;10245;51.344;6.620;2023-01-09T03:50:35;6.30;90.40
20171;DHT22;10245;51.344;6.620;2023-01-09T03:52:58;6.20;90.90
20171;DHT22;10245;51.344;6.620;2023-01-09T03:55:22;6.10;91.10
20171;DHT22;10245;51.344;6.620;2023-01-09T03:57:45;6.10;91.40
20171;DHT22;10245;51.344;6.620;2023-01-09T04:00:09;6.00;91.40
20171;DHT22;10245;51.344;6.620;2023-01-09T04:02:33;6.00;91.40
20171;DHT22;10245;51.344;6.620;2023-01-09T04:04:57;6.00;91.10
20171;DHT22;10245;51.344;6.620;2023-01-09T04:07:21;6.00;91.10
20171;DHT22;10245;51.344;6.620;2023-01-09T04:09:45;6.10;91.10
20171;DHT22;10245;51.344;6.620;2023-01-09T04:12:08;6.00;91.20
20171;DHT22;10245;51.344;6.620;2023-01-09T04:14:31;5.90;91.20
20171;DHT22;10245;51.344;6.620;2023-01-09T04:16:55;6.00;91.10
20171;DHT22;10245;51.344;6.620;2023-01-09T04:19:18;5.90;91.10
20171;DHT22;10245;51.344;6.620;2023-01-09T04:21:42;5.90;91.20
20171;DHT22;10245;51.344;6.620;2023-01-09T04:24:07;5.80;91.30
20171;DHT22;10245;51.344;6.620;2023-01-09T04:26:30;5.80;91.30
20171;DHT22;10245;51.344;6.620;2023-01-09T04:28:54;5.70;91.50
20171;DHT22;10245;51.344;6.620;2023-01-09T04:31:17;5.70;91.30
20171;DHT22;10245;51.344;6.620;2023-01-09T04:33:41;5.70;91.50
20171;DHT22;10245;51.344;6.620;2023-01-09T04:36:05;5.70;91.60
20171;DHT22;10245;51.344;6.620;2023-01-09T04:38:28;5.70;91.40
20171;DHT22;10245;51.344;6.620;2023-01-09T04:40:53;5.70;91.40
20171;DHT22;10245;51.344;6.620;2023-01-09T04:43:16;5.50;91.40
20171;DHT22;10245;51.344;6.620;2023-01-09T04:45:40;5.50;91.50
20171;DHT22;10245;51.344;6.620;2023-01-09T04:48:04;5.50;91.60
20171;DHT22;10245;51.344;6.620;2023-01-09T04:50:28;5.60;91.20
20171;DHT22;10245;51.344;6.620;2023-01-09T04:52:52;5.60;91.10
20171;DHT22;10245;51.344;6.620;2023-01-09T04:55:15;5.70;91.00
20171;DHT22;10245;51.344;6.620;2023-01-09T04:57:40;5.80;90.80
20171;DHT22;10245;51.344;6.620;2023-01-09T05:00:04;5.80;90.70
20171;DHT22;10245;51.344;6.620;2023-01-09T05:02:30;5.90;90.70
20171;DHT22;10245;51.344;6.620;2023-01-09T05:04:54;5.90;90.60
20171;DHT22;10245;51.344;6.620;2023-01-09T05:07:17;5.90;90.70
20171;DHT22;10245;51.344;6.620;2023-01-09T05:09:40;5.90;90.60
20171;DHT22;10245;51.344;6.620;2023-01-09T05:12:05;5.90;90.70
20171;DHT22;10245;51.344;6.620;2023-01-09T05:14:30;5.90;90.90
20171;DHT22;10245;51.344;6.620;2023-01-09T05:16:54;6.00;90.30
20171;DHT22;10245;51.344;6.620;2023-01-09T05:19:18;6.00;90.20
20171;DHT22;10245;51.344;6.620;2023-01-09T05:21:42;6.20;88.70
20171;DHT22;10245;51.344;6.620;2023-01-09T05:24:06;6.00;89.80
20171;DHT22;10245;51.344;6.620;2023-01-09T05:26:29;6.10;88.90
20171;DHT22;10245;51.344;6.620;2023-01-09T05:28:53;6.30;88.40
20171;DHT22;10245;51.344;6.620;2023-01-09T05:31:19;6.20;89.30
20171;DHT22;10245;51.344;6.620;2023-01-09T05:33:43;6.20;89.00
20171;DHT22;10245;51.344;6.620;2023-01-09T05:36:07;6.30;88.40
20171;DHT22;10245;51.344;6.620;2023-01-09T05:38:30;6.30;88.60
20171;DHT22;10245;51.344;6.620;2023-01-09T05:40:53;6.50;87.40
20171;DHT22;10245;51.344;6.620;2023-01-09T05:43:17;6.50;88.30
20171;DHT22;10245;51.344;6.620;2023-01-09T05:45:40;6.40;88.20
20171;DHT22;10245;51.344;6.620;2023-01-09T05:48:05;6.50;87.90
20171;DHT22;10245;51.344;6.620;2023-01-09T05:50:29;6.50;88.40
20171;DHT22;10245;51.344;6.620;2023-01-09T05:52:52;6.50;88.60
20171;DHT22;10245;51.344;6.620;2023-01-09T05:55:16;6.50;88.30
20171;DHT22;10245;51.344;6.620;2023-01-09T05:57:40;6.50;87.70
20171;DHT22;10245;51.344;6.620;2023-01-09T06:00:04;6.50;87.60
20171;DHT22;10245;51.344;6.620;2023-01-09T06:02:28;6.50;88.50
20171;DHT22;10245;51.344;6.620;2023-01-09T06:04:53;6.50;87.90
20171;DHT22;10245;51.344;6.620;2023-01-09T06:07:17;6.60;88.00
20171;DHT22;10245;51.344;6.620;2023-01-09T06:09:44;6.50;88.70
20171;DHT22;10245;51.344;6.620;2023-01-09T06:12:07;6.60;88.00
20171;DHT22;10245;51.344;6.620;2023-01-09T06:14:30;6.60;87.90
20171;DHT22;10245;51.344;6.620;2023-01-09T06:16:53;6.50;88.40
20171;DHT22;10245;51.344;6.620;2023-01-09T06:19:17;6.50;88.30
20171;DHT22;10245;51.344;6.620;2023-01-09T06:21:42;6.60;88.10
20171;DHT22;10245;51.344;6.620;2023-01-09T06:24:06;6.60;88.60
20171;DHT22;10245;51.344;6.620;2023-01-09T06:26:29;6.60;88.30
20171;DHT22;10245;51.344;6.620;2023-01-09T06:28:53;6.60;88.40
20171;DHT22;10245;51.344;6.620;2023-01-09T06:31:17;6.60;88.30
20171;DHT22;10245;51.344;6.620;2023-01-09T06:33:40;6.70;88.30
20171;DHT22;10245;51.344;6.620;2023-01-09T06:36:04;6.80;87.50
20171;DHT22;10245;51.344;6.620;2023-01-09T06:38:29;6.80;87.80
20171;DHT22;10245;51.344;6.620;2023-01-09T06:40:52;6.70;87.50
20171;DHT22;10245;51.344;6.620;2023-01-09T06:43:16;6.80;87.80
20171;DHT22;10245;51.344;6.620;2023-01-09T06:45:41;6.70;88.10
20171;DHT22;10245;51.344;6.620;2023-01-09T06:48:04;6.80;87.60
20171;DHT22;10245;51.344;6.620;2023-01-09T06:50:28;6.90;86.90
20171;DHT22;10245;51.344;6.620;2023-01-09T06:52:51;6.90;87.20
20171;DHT22;10245;51.344;6.620;2023-01-09T06:55:16;7.00;86.70
20171;DHT22;10245;51.344;6.620;2023-01-09T06:57:39;6.90;87.00
20171;DHT22;10245;51.344;6.620;2023-01-09T07:00:04;6.90;87.40
20171;DHT22;10245;51.344;6.620;2023-01-09T07:02:28;7.10;85.60
20171;DHT22;10245;51.344;6.620;2023-01-09T07:04:51;7.00;86.40
20171;DHT22;10245;51.344;6.620;2023-01-09T07:07:14;7.00;86.40
20171;DHT22;10245;51.344;6.620;2023-01-09T07:09:38;7.00;86.20
20171;DHT22;10245;51.344;6.620;2023-01-09T07:12:02;7.10;85.80
20171;DHT22;10245;51.344;6.620;2023-01-09T07:14:26;7.10;85.70
20171;DHT22;10245;51.344;6.620;2023-01-09T07:16:49;7.10;86.20
20171;DHT22;10245;51.344;6.620;2023-01-09T07:19:12;7.10;86.30
20171;DHT22;10245;51.344;6.620;2023-01-09T07:21:36;7.00;86.60
20171;DHT22;10245;51.344;6.620;2023-01-09T07:23:59;7.10;86.40
20171;DHT22;10245;51.344;6.620;2023-01-09T07:26:23;7.20;85.90
20171;DHT22;10245;51.344;6.620;2023-01-09T07:28:47;7.20;85.10
20171;DHT22;10245;51.344;6.620;2023-01-09T07:31:11;7.10;86.20
20171;DHT22;10245;51.344;6.620;2023-01-09T07:33:34;7.10;86.60
20171;DHT22;10245;51.344;6.620;2023-01-09T07:35:58;7.20;86.50
20171;DHT22;10245;51.344;6.620;2023-01-09T07:38:21;7.10;87.00
20171;DHT22;10245;51.344;6.620;2023-01-09T07:40:44;7.10;87.30
20171;DHT22;10245;51.344;6.620;2023-01-09T07:43:08;7.10;87.80
20171;DHT22;10245;51.344;6.620;2023-01-09T07:45:32;7.00;87.90
20171;DHT22;10245;51.344;6.620;2023-01-09T07:47:56;7.00;89.00
20171;DHT22;10245;51.344;6.620;2023-01-09T07:50:19;7.00;88.40
20171;DHT22;10245;51.344;6.620;2023-01-09T07:52:43;7.00;88.80
20171;DHT22;10245;51.344;6.620;2023-01-09T07:55:08;7.00;89.20
20171;DHT22;10245;51.344;6.620;2023-01-09T07:57:32;7.00;89.00
20171;DHT22;10245;51.344;6.620;2023-01-09T07:59:56;7.00;88.50
20171;DHT22;10245;51.344;6.620;2023-01-09T08:02:22;7.00;88.60
20171;DHT22;10245;51.344;6.620;2023-01-09T08:04:46;7.10;87.40
20171;DHT22;10245;51.344;6.620;2023-01-09T08:07:09;7.20;87.40
20171;DHT22;10245;51.344;6.620;2023-01-09T08:09:33;7.10;87.40
20171;DHT22;10245;51.344;6.620;2023-01-09T08:11:56;7.30;86.40
20171;DHT22;10245;51.344;6.620;2023-01-09T08:14:19;7.30;87.20
20171;DHT22;10245;51.344;6.620;2023-01-09T08:16:42;7.20;87.20
20171;DHT22;10245;51.344;6.620;2023-01-09T08:19:07;7.30;86.80
20171;DHT22;10245;51.344;6.620;2023-01-09T08:21:32;7.30;86.40
20171;DHT22;10245;51.344;6.620;2023-01-09T08:23:56;7.40;86.50
20171;DHT22;10245;51.344;6.620;2023-01-09T08:26:19;7.40;86.30
20171;DHT22;10245;51.344;6.620;2023-01-09T08:28:42;7.30;86.90
20171;DHT22;10245;51.344;6.620;2023-01-09T08:31:06;7.40;86.80
20171;DHT22;10245;51.344;6.620;2023-01-09T08:33:30;7.40;86.60
20171;DHT22;10245;51.344;6.620;2023-01-09T08:35:54;7.40;86.50
20171;DHT22;10245;51.344;6.620;2023-01-09T08:38:18;7.50;86.70
20171;DHT22;10245;51.344;6.620;2023-01-09T08:40:45;7.50;85.30
20171;DHT22;10245;51.344;6.620;2023-01-09T08:43:08;7.60;85.30
20171;DHT22;10245;51.344;6.620;2023-01-09T08:45:50;7.50;85.30
20171;DHT22;10245;51.344;6.620;2023-01-09T08:48:31;7.60;85.00
20171;DHT22;10245;51.344;6.620;2023-01-09T08:50:55;7.60;84.80
20171;DHT22;10245;51.344;6.620;2023-01-09T08:53:19;7.50;85.80
20171;DHT22;10245;51.344;6.620;2023-01-09T08:55:42;7.60;85.60
20171;DHT22;10245;51.344;6.620;2023-01-09T08:58:06;7.50;87.10
20171;DHT22;10245;51.344;6.620;2023-01-09T09:00:29;7.70;84.60
20171;DHT22;10245;51.344;6.620;2023-01-09T09:02:54;7.60;85.60
20171;DHT22;10245;51.344;6.620;2023-01-09T09:05:19;7.60;85.10
20171;DHT22;10245;51.344;6.620;2023-01-09T09:07:46;7.70;84.30
20171;DHT22;10245;51.344;6.620;2023-01-09T09:10:10;7.70;85.40
20171;DHT22;10245;51.344;6.620;2023-01-09T09:12:33;7.70;84.40
20171;DHT22;10245;51.344;6.620;2023-01-09T09:14:57;7.90;83.30
20171;DHT22;10245;51.344;6.620;2023-01-09T09:17:37;7.90;83.70
20171;DHT22;10245;51.344;6.620;2023-01-09T09:20:02;7.80;84.20
20171;DHT22;10245;51.344;6.620;2023-01-09T09:22:25;7.90;84.00
20171;DHT22;10245;51.344;6.620;2023-01-09T09:24:50;7.90;83.70
20171;DHT22;10245;51.344;6.620;2023-01-09T09:27:14;8.00;83.10
20171;DHT22;10245;51.344;6.620;2023-01-09T09:29:37;7.90;83.40
20171;DHT22;10245;51.344;6.620;2023-01-09T09:32:00;8.00;83.10
20171;DHT22;10245;51.344;6.620;2023-01-09T09:34:23;8.00;83.00
20171;DHT22;10245;51.344;6.620;2023-01-09T09:36:47;8.10;82.10
20171;DHT22;10245;51.344;6.620;2023-01-09T09:39:10;8.10;82.50
20171;DHT22;10245;51.344;6.620;2023-01-09T09:41:46;8.20;81.80
20171;DHT22;10245;51.344;6.620;2023-01-09T09:45:02;8.10;82.60
20171;DHT22;10245;51.344;6.620;2023-01-09T09:47:37;8.10;82.60
20171;DHT22;10245;51.344;6.620;2023-01-09T09:50:25;8.00;82.90
20171;DHT22;10245;51.344;6.620;2023-01-09T09:52:58;8.10;82.10
20171;DHT22;10245;51.344;6.620;2023-01-09T09:55:32;8.20;82.40
20171;DHT22;10245;51.344;6.620;2023-01-09T09:58:00;8.20;82.10
20171;DHT22;10245;51.344;6.620;2023-01-09T10:00:26;8.30;81.80
20171;DHT22;10245;51.344;6.620;2023-01-09T10:02:52;8.20;82.20
20171;DHT22;10245;51.344;6.620;2023-01-09T10:05:22;8.20;82.60
20171;DHT22;10245;51.344;6.620;2023-01-09T10:07:49;8.20;82.50
20171;DHT22;10245;51.344;6.620;2023-01-09T10:10:16;8.30;81.70
20171;DHT22;10245;51.344;6.620;2023-01-09T10:12:46;8.30;82.20
20171;DHT22;10245;51.344;6.620;2023-01-09T10:15:17;8.40;81.20
20171;DHT22;10245;51.344;6.620;2023-01-09T10:17:51;8.30;81.40
20171;DHT22;10245;51.344;6.620;2023-01-09T10:20:46;8.30;81.70
20171;DHT22;10245;51.344;6.620;2023-01-09T10:23:24;8.30;81.70
20171;DHT22;10245;51.344;6.620;2023-01-09T10:25:56;8.30;81.70
20171;DHT22;10245;51.344;6.620;2023-01-09T10:28:34;8.30;81.50
20171;DHT22;10245;51.344;6.620;2023-01-09T10:31:12;8.40;81.90
20171;DHT22;10245;51.344;6.620;2023-01-09T10:33:48;8.40;80.60
20171;DHT22;10245;51.344;6.620;2023-01-09T10:39:26;8.30;82.90
20171;DHT22;10245;51.344;6.620;2023-01-09T10:41:56;8.30;82.10
20171;DHT22;10245;51.344;6.620;2023-01-09T10:44:25;8.40;81.20
20171;DHT22;10245;51.344;6.620;2023-01-09T10:46:56;8.40;82.30
20171;DHT22;10245;51.344;6.620;2023-01-09T10:49:21;8.50;81.00
20171;DHT22;10245;51.344;6.620;2023-01-09T10:51:47;8.50;80.40
20171;DHT22;10245;51.344;6.620;2023-01-09T10:54:13;8.60;80.40
20171;DHT22;10245;51.344;6.620;2023-01-09T10:56:42;8.60;81.20
20171;DHT22;10245;51.344;6.620;2023-01-09T10:59:08;8.60;80.90
20171;DHT22;10245;51.344;6.620;2023-01-09T11:01:34;8.60;81.30
20171;DHT22;10245;51.344;6.620;2023-01-09T11:04:01;8.60;80.90
20171;DHT22;10245;51.344;6.620;2023-01-09T11:06:35;8.60;80.70
20171;DHT22;10245;51.344;6.620;2023-01-09T11:09:04;8.60;80.30
20171;DHT22;10245;51.344;6.620;2023-01-09T11:11:33;8.60;80.70
20171;DHT22;10245;51.344;6.620;2023-01-09T11:14:04;8.60;79.70
20171;DHT22;10245;51.344;6.620;2023-01-09T11:16:29;8.50;80.70
20171;DHT22;10245;51.344;6.620;2023-01-09T11:18:54;8.60;80.00
20171;DHT22;10245;51.344;6.620;2023-01-09T11:21:30;8.50;80.20
20171;DHT22;10245;51.344;6.620;2023-01-09T11:24:23;8.50;80.40
20171;DHT22;10245;51.344;6.620;2023-01-09T11:26:51;8.50;80.70
20171;DHT22;10245;51.344;6.620;2023-01-09T11:29:17;8.50;80.30
20171;DHT22;10245;51.344;6.620;2023-01-09T11:31:49;8.40;80.70
20171;DHT22;10245;51.344;6.620;2023-01-09T11:34:15;8.50;80.30
20171;DHT22;10245;51.344;6.620;2023-01-09T11:36:41;8.50;80.50
20171;DHT22;10245;51.344;6.620;2023-01-09T11:39:04;8.50;79.50
20171;DHT22;10245;51.344;6.620;2023-01-09T11:41:30;8.50;79.20
20171;DHT22;10245;51.344;6.620;2023-01-09T11:43:56;8.40;79.20
20171;DHT22;10245;51.344;6.620;2023-01-09T11:46:33;8.50;78.60
20171;DHT22;10245;51.344;6.620;2023-01-09T11:49:00;8.50;79.50
20171;DHT22;10245;51.344;6.620;2023-01-09T11:51:25;8.50;79.30
20171;DHT22;10245;51.344;6.620;2023-01-09T11:54:00;8.50;79.20
20171;DHT22;10245;51.344;6.620;2023-01-09T11:56:40;8.50;78.80
20171;DHT22;10245;51.344;6.620;2023-01-09T11:59:09;8.60;79.20
20171;DHT22;10245;51.344;6.620;2023-01-09T12:04:31;8.50;78.30
20171;DHT22;10245;51.344;6.620;2023-01-09T12:07:09;8.50;78.00
20171;DHT22;10245;51.344;6.620;2023-01-09T12:09:45;8.50;77.40
20171;DHT22;10245;51.344;6.620;2023-01-09T12:12:20;8.40;78.30
20171;DHT22;10245;51.344;6.620;2023-01-09T12:15:00;8.40;78.80
20171;DHT22;10245;51.344;6.620;2023-01-09T12:17:48;8.30;79.40
20171;DHT22;10245;51.344;6.620;2023-01-09T12:20:35;8.30;79.80
20171;DHT22;10245;51.344;6.620;2023-01-09T12:23:19;8.30;80.10
20171;DHT22;10245;51.344;6.620;2023-01-09T12:25:55;8.30;80.40
20171;DHT22;10245;51.344;6.620;2023-01-09T12:28:52;8.20;80.60
20171;DHT22;10245;51.344;6.620;2023-01-09T12:31:29;8.10;80.40
20171;DHT22;10245;51.344;6.620;2023-01-09T12:34:10;8.10;80.10
20171;DHT22;10245;51.344;6.620;2023-01-09T12:36:51;8.10;80.60
20171;DHT22;10245;51.344;6.620;2023-01-09T12:39:29;8.00;80.90
20171;DHT22;10245;51.344;6.620;2023-01-09T12:42:13;7.90;83.00
20171;DHT22;10245;51.344;6.620;2023-01-09T12:44:52;7.80;84.00
20171;DHT22;10245;51.344;6.620;2023-01-09T12:50:34;7.60;83.90
20171;DHT22;10245;51.344;6.620;2023-01-09T12:53:17;7.60;84.60
20171;DHT22;10245;51.344;6.620;2023-01-09T12:55:48;7.70;84.80
20171;DHT22;10245;51.344;6.620;2023-01-09T12:58:19;7.80;83.40
20171;DHT22;10245;51.344;6.620;2023-01-09T13:00:53;7.90;82.90
20171;DHT22;10245;51.344;6.620;2023-01-09T13:03:20;7.90;83.70
20171;DHT22;10245;51.344;6.620;2023-01-09T13:05:49;8.00;83.00
20171;DHT22;10245;51.344;6.620;2023-01-09T13:08:18;7.90;82.90
20171;DHT22;10245;51.344;6.620;2023-01-09T13:10:46;8.00;82.60
20171;DHT22;10245;51.344;6.620;2023-01-09T13:13:16;8.00;82.40
20171;DHT22;10245;51.344;6.620;2023-01-09T13:15:45;8.00;82.00
20171;DHT22;10245;51.344;6.620;2023-01-09T13:18:13;7.90;82.80
20171;DHT22;10245;51.344;6.620;2023-01-09T13:20:43;7.80;83.70
20171;DHT22;10245;51.344;6.620;2023-01-09T13:23:12;7.80;83.10
20171;DHT22;10245;51.344;6.620;2023-01-09T13:25:41;7.80;83.40
20171;DHT22;10245;51.344;6.620;2023-01-09T13:28:13;7.80;83.50
20171;DHT22;10245;51.344;6.620;2023-01-09T13:30:53;7.90;82.80
20171;DHT22;10245;51.344;6.620;2023-01-09T13:33:25;7.90;83.40
20171;DHT22;10245;51.344;6.620;2023-01-09T13:35:51;7.90;83.00
20171;DHT22;10245;51.344;6.620;2023-01-09T13:38:17;7.90;82.70
20171;DHT22;10245;51.344;6.620;2023-01-09T13:40:42;8.00;83.30
20171;DHT22;10245;51.344;6.620;2023-01-09T13:43:07;8.00;82.30
20171;DHT22;10245;51.344;6.620;2023-01-09T13:45:33;8.00;82.80
20171;DHT22;10245;51.344;6.620;2023-01-09T13:48:27;8.00;82.70
20171;DHT22;10245;51.344;6.620;2023-01-09T13:55:02;8.00;82.60
20171;DHT22;10245;51.344;6.620;2023-01-09T13:57:43;8.00;82.00
20171;DHT22;10245;51.344;6.620;2023-01-09T14:00:46;8.00;81.90
20171;DHT22;10245;51.344;6.620;2023-01-09T14:03:17;8.00;84.20
20171;DHT22;10245;51.344;6.620;2023-01-09T14:06:08;7.90;84.40
20171;DHT22;10245;51.344;6.620;2023-01-09T14:08:35;7.80;84.90
20171;DHT22;10245;51.344;6.620;2023-01-09T14:11:00;7.80;84.50
20171;DHT22;10245;51.344;6.620;2023-01-09T14:13:26;7.80;84.70
20171;DHT22;10245;51.344;6.620;2023-01-09T14:15:52;7.80;84.30
20171;DHT22;10245;51.344;6.620;2023-01-09T14:18:24;7.80;84.20
20171;DHT22;10245;51.344;6.620;2023-01-09T14:20:54;7.80;83.70
20171;DHT22;10245;51.344;6.620;2023-01-09T14:23:21;7.80;84.80
20171;DHT22;10245;51.344;6.620;2023-01-09T14:26:14;7.80;83.70
20171;DHT22;10245;51.344;6.620;2023-01-09T14:28:39;7.80;84.30
20171;DHT22;10245;51.344;6.620;2023-01-09T14:31:06;7.90;84.10
20171;DHT22;10245;51.344;6.620;2023-01-09T14:33:31;7.90;83.70
20171;DHT22;10245;51.344;6.620;2023-01-09T14:36:02;8.00;83.20
20171;DHT22;10245;51.344;6.620;2023-01-09T14:38:32;8.00;82.20
20171;DHT22;10245;51.344;6.620;2023-01-09T14:41:00;8.00;82.90
20171;DHT22;10245;51.344;6.620;2023-01-09T14:43:38;8.00;82.20
20171;DHT22;10245;51.344;6.620;2023-01-09T14:46:11;8.10;81.60
20171;DHT22;10245;51.344;6.620;2023-01-09T14:48:40;8.00;81.80
20171;DHT22;10245;51.344;6.620;2023-01-09T14:51:15;8.00;81.70
20171;DHT22;10245;51.344;6.620;2023-01-09T14:53:39;8.00;81.40
20171;DHT22;10245;51.344;6.620;2023-01-09T14:56:04;8.00;81.70
20171;DHT22;10245;51.344;6.620;2023-01-09T14:58:31;8.00;82.00
20171;DHT22;10245;51.344;6.620;2023-01-09T15:00:58;8.00;81.60
20171;DHT22;10245;51.344;6.620;2023-01-09T15:03:27;8.00;81.90
20171;DHT22;10245;51.344;6.620;2023-01-09T15:05:53;8.00;82.80
20171;DHT22;10245;51.344;6.620;2023-01-09T15:08:19;8.00;82.20
20171;DHT22;10245;51.344;6.620;2023-01-09T15:10:45;8.00;82.60
20171;DHT22;10245;51.344;6.620;2023-01-09T15:13:14;8.00;82.00
20171;DHT22;10245;51.344;6.620;2023-01-09T15:15:44;8.00;82.10
20171;DHT22;10245;51.344;6.620;2023-01-09T15:18:08;8.00;82.70
20171;DHT22;10245;51.344;6.620;2023-01-09T15:20:33;8.00;82.90
20171;DHT22;10245;51.344;6.620;2023-01-09T15:22:57;8.00;83.00
20171;DHT22;10245;51.344;6.620;2023-01-09T15:25:25;8.00;82.40
20171;DHT22;10245;51.344;6.620;2023-01-09T15:28:00;8.00;82.90
20171;DHT22;10245;51.344;6.620;2023-01-09T15:30:38;8.00;82.50
20171;DHT22;10245;51.344;6.620;2023-01-09T15:33:10;8.00;82.80
20171;DHT22;10245;51.344;6.620;2023-01-09T15:35:40;7.90;82.80
20171;DHT22;10245;51.344;6.620;2023-01-09T15:38:04;7.90;83.20
20171;DHT22;10245;51.344;6.620;2023-01-09T15:40:32;7.90;83.70
20171;DHT22;10245;51.344;6.620;2023-01-09T15:42:56;7.90;83.90
20171;DHT22;10245;51.344;6.620;2023-01-09T15:45:22;7.80;83.70
20171;DHT22;10245;51.344;6.620;2023-01-09T15:47:47;7.80;84.10
20171;DHT22;10245;51.344;6.620;2023-01-09T15:50:13;7.80;83.80
20171;DHT22;10245;51.344;6.620;2023-01-09T15:52:38;7.70;84.80
20171;DHT22;10245;51.344;6.620;2023-01-09T15:55:01;7.70;84.80
20171;DHT22;10245;51.344;6.620;2023-01-09T15:57:29;7.70;85.00
20171;DHT22;10245;51.344;6.620;2023-01-09T16:02:54;7.70;84.70
20171;DHT22;10245;51.344;6.620;2023-01-09T16:05:38;7.60;84.70